createdAt,value
2023-05-23T00:02:08.363Z,9.80
2023-05-23T00:04:58.638Z,7.22
2023-05-23T00:07:46.906Z,6.32
2023-05-23T00:10:34.659Z,9.82
2023-05-23T00:13:22.760Z,5.78
2023-05-23T00:16:10.727Z,8.05
2023-05-23T00:18:59.436Z,8.88
2023-05-23T00:21:49.839Z,6.75
2023-05-23T00:24:37.638Z,8.52
2023-05-23T00:27:25.537Z,9.93
2023-05-23T00:30:13.658Z,9.90
2023-05-23T00:33:01.605Z,8.18
2023-05-23T00:35:49.639Z,7.68
2023-05-23T00:38:39.649Z,9.32
2023-05-23T00:41:30.634Z,7.93
2023-05-23T00:44:20.190Z,8.35
2023-05-23T00:47:09.303Z,8.57
2023-05-23T00:49:57.147Z,8.65
2023-05-23T00:52:46.673Z,8.80
2023-05-23T00:55:35.877Z,7.18
2023-05-23T00:58:24.156Z,7.03
2023-05-23T01:01:12.152Z,9.27
2023-05-23T01:04:00.106Z,6.72
2023-05-23T01:06:49.273Z,6.78
2023-05-23T01:12:52.224Z,8.48
2023-05-23T01:15:46.793Z,9.63
2023-05-23T01:18:41.511Z,6.63
2023-05-23T01:21:30.518Z,9.45
2023-05-23T01:24:36.682Z,7.93
2023-05-23T01:27:38.156Z,7.13
2023-05-23T01:30:26.992Z,7.72
2023-05-23T01:33:17.577Z,8.25
2023-05-23T01:36:05.807Z,9.65
2023-05-23T01:38:53.738Z,6.25
2023-05-23T01:41:41.682Z,6.95
2023-05-23T01:44:31.115Z,8.20
2023-05-23T01:47:19.667Z,8.70
2023-05-23T01:50:09.076Z,8.35
2023-05-23T01:52:57.804Z,8.27
2023-05-23T01:55:46.513Z,8.10
2023-05-23T01:58:34.527Z,11.15
2023-05-23T02:01:23.822Z,10.85
2023-05-23T02:04:11.855Z,6.07
2023-05-23T02:06:59.499Z,5.85
2023-05-23T02:09:47.266Z,8.85
2023-05-23T02:12:35.074Z,7.75
2023-05-23T02:15:22.845Z,6.35
2023-05-23T02:18:11.932Z,7.15
2023-05-23T02:20:59.666Z,7.43
2023-05-23T02:23:47.432Z,7.97
2023-05-23T02:26:35.034Z,9.10
2023-05-23T02:29:23.034Z,5.78
2023-05-23T02:32:10.785Z,6.40
2023-05-23T02:34:59.848Z,5.65
2023-05-23T02:37:47.808Z,7.50
2023-05-23T02:40:35.531Z,7.63
2023-05-23T02:43:23.246Z,8.73
2023-05-23T02:46:11.228Z,6.82
2023-05-23T02:48:58.896Z,5.50
2023-05-23T02:51:47.904Z,6.97
2023-05-23T02:54:35.679Z,5.60
2023-05-23T02:57:23.366Z,9.20
2023-05-23T03:00:12.189Z,7.38
2023-05-23T03:02:59.992Z,8.75
2023-05-23T03:05:48.417Z,4.95
2023-05-23T03:08:37.499Z,7.25
2023-05-23T03:11:25.440Z,8.35
2023-05-23T03:14:13.911Z,7.30
2023-05-23T03:17:04.028Z,6.32
2023-05-23T03:19:51.678Z,7.97
2023-05-23T03:22:39.332Z,6.70
2023-05-23T03:25:28.423Z,6.97
2023-05-23T03:28:16.232Z,5.85
2023-05-23T03:31:04.084Z,5.65
2023-05-23T03:33:52.115Z,6.05
2023-05-23T03:36:40.416Z,9.68
2023-05-23T03:39:28.170Z,5.13
2023-05-23T03:42:17.261Z,5.35
2023-05-23T03:45:05.673Z,7.32
2023-05-23T03:47:53.468Z,8.60
2023-05-23T03:50:41.206Z,8.18
2023-05-23T03:53:28.897Z,6.18
2023-05-23T03:56:16.641Z,4.70
2023-05-23T03:59:05.907Z,11.52
2023-05-23T04:01:53.578Z,5.95
2023-05-23T04:04:41.367Z,10.30
2023-05-23T04:07:29.228Z,6.05
2023-05-23T04:10:17.108Z,7.88
2023-05-23T04:13:04.814Z,5.38
2023-05-23T04:15:56.270Z,11.10
2023-05-23T04:18:47.149Z,8.38
2023-05-23T04:21:34.983Z,6.75
2023-05-23T04:24:22.722Z,7.32
2023-05-23T04:27:10.386Z,8.07
2023-05-23T04:29:58.325Z,6.60
2023-05-23T04:32:47.495Z,5.32
2023-05-23T04:35:39.010Z,3.97
2023-05-23T04:38:27.830Z,8.55
2023-05-23T04:41:16.412Z,8.18
2023-05-23T04:44:06.216Z,5.25
2023-05-23T04:46:54.099Z,5.68
2023-05-23T04:49:43.155Z,8.90
2023-05-23T04:52:33.425Z,5.40
2023-05-23T04:55:21.556Z,6.30
2023-05-23T04:58:09.924Z,7.63
2023-05-23T05:00:57.849Z,5.22
2023-05-23T05:03:45.539Z,15.30
2023-05-23T05:06:34.662Z,13.13
2023-05-23T05:09:23.175Z,16.67
2023-05-23T05:12:10.795Z,11.27
2023-05-23T05:14:58.598Z,9.18
2023-05-23T05:17:48.290Z,12.45
2023-05-23T05:27:03.356Z,9.32
2023-05-23T05:29:51.922Z,14.43
2023-05-23T05:32:39.834Z,9.20
2023-05-23T05:35:27.672Z,9.63
2023-05-23T05:38:15.403Z,11.45
2023-05-23T05:41:05.468Z,19.23
2023-05-23T05:43:54.023Z,10.85
2023-05-23T05:46:41.821Z,8.65
2023-05-23T05:49:29.582Z,8.10
2023-05-23T05:52:18.602Z,8.10
2023-05-23T05:55:07.290Z,11.02
2023-05-23T05:57:56.404Z,7.30
2023-05-23T06:00:44.161Z,9.50
2023-05-23T06:03:32.323Z,10.23
2023-05-23T06:06:20.270Z,11.10
2023-05-23T06:09:08.065Z,9.02
2023-05-23T06:11:55.915Z,6.03
2023-05-23T06:14:45.044Z,8.60
2023-05-23T06:17:32.981Z,16.30
2023-05-23T06:20:20.705Z,7.68
2023-05-23T06:23:08.903Z,6.50
2023-05-23T06:25:56.611Z,8.57
2023-05-23T06:28:44.294Z,7.35
2023-05-23T06:31:33.479Z,14.38
2023-05-23T06:34:21.410Z,5.38
2023-05-23T06:37:09.112Z,9.05
2023-05-23T06:39:56.880Z,15.13
2023-05-23T06:42:44.762Z,7.13
2023-05-23T06:45:35.160Z,7.35
2023-05-23T06:48:24.296Z,9.30
2023-05-23T06:51:12.101Z,7.30
2023-05-23T06:53:59.864Z,6.40
2023-05-23T06:56:47.580Z,5.85
2023-05-23T06:59:35.335Z,11.55
2023-05-23T07:02:23.157Z,9.25
2023-05-23T07:05:12.583Z,8.70
2023-05-23T07:08:00.328Z,6.85
2023-05-23T07:10:48.017Z,7.03
2023-05-23T07:13:35.818Z,10.52
2023-05-23T07:16:23.648Z,9.27
2023-05-23T07:19:11.415Z,9.70
2023-05-23T07:22:00.489Z,9.38
2023-05-23T07:24:48.302Z,7.60
2023-05-23T07:27:36.252Z,13.02
2023-05-23T07:30:24.093Z,8.15
2023-05-23T07:33:11.843Z,28.67
2023-05-23T07:35:59.574Z,11.55
2023-05-23T07:38:48.613Z,7.80
2023-05-23T07:41:36.402Z,9.90
2023-05-23T07:44:25.312Z,11.43
2023-05-23T07:47:13.252Z,13.13
2023-05-23T07:50:02.476Z,8.90
2023-05-23T07:52:51.391Z,10.80
2023-05-23T07:55:40.585Z,10.65
2023-05-23T07:58:28.325Z,8.60
2023-05-23T08:01:16.041Z,15.07
2023-05-23T08:04:04.068Z,10.88
2023-05-23T08:07:00.897Z,7.38
2023-05-23T08:09:53.045Z,9.98
2023-05-23T08:12:43.165Z,8.63
2023-05-23T08:15:31.435Z,8.18
2023-05-23T08:18:19.277Z,7.40
2023-05-23T08:21:07.186Z,6.72
2023-05-23T08:23:55.001Z,7.43
2023-05-23T08:26:42.762Z,10.10
2023-05-23T08:29:31.877Z,10.55
2023-05-23T08:32:19.984Z,13.70
2023-05-23T08:35:09.187Z,12.52
2023-05-23T08:37:58.327Z,7.68
2023-05-23T08:40:51.600Z,10.82
2023-05-23T08:43:39.388Z,11.07
2023-05-23T08:46:29.033Z,10.23
2023-05-23T08:49:19.061Z,9.38
2023-05-23T08:52:13.488Z,8.60
2023-05-23T08:55:02.811Z,9.50
2023-05-23T08:57:50.630Z,7.50
2023-05-23T09:00:38.651Z,9.90
2023-05-23T09:03:28.839Z,8.88
2023-05-23T09:06:18.255Z,10.02
2023-05-23T09:09:06.042Z,12.23
2023-05-23T09:11:54.521Z,10.80
2023-05-23T09:14:42.347Z,10.73
2023-05-23T09:17:30.147Z,9.85
2023-05-23T09:20:19.834Z,7.38
2023-05-23T09:23:07.591Z,13.18
2023-05-23T09:25:55.534Z,12.68
2023-05-23T09:28:44.734Z,9.60
2023-05-23T09:31:33.830Z,7.00
2023-05-23T09:34:21.571Z,8.77
2023-05-23T09:37:19.592Z,7.25
2023-05-23T09:40:11.354Z,8.73
2023-05-23T09:43:04.166Z,6.90
2023-05-23T09:45:53.712Z,6.75
2023-05-23T09:48:41.480Z,7.95
2023-05-23T09:51:30.395Z,7.43
2023-05-23T09:54:19.491Z,9.18
2023-05-23T09:57:11.657Z,7.70
2023-05-23T10:00:02.054Z,8.90
2023-05-23T10:03:12.702Z,10.73
2023-05-23T10:06:03.038Z,9.48
2023-05-23T10:08:56.028Z,8.10
2023-05-23T10:12:31.723Z,9.25
2023-05-23T10:15:23.985Z,8.32
2023-05-23T10:18:17.796Z,9.43
2023-05-23T10:21:11.236Z,10.23
2023-05-23T10:24:00.752Z,12.97
2023-05-23T10:26:50.023Z,9.05
2023-05-23T10:29:38.150Z,10.23
2023-05-23T10:32:28.506Z,10.43
2023-05-23T10:35:23.769Z,7.10
2023-05-23T10:38:24.169Z,8.90
2023-05-23T10:41:14.853Z,9.32
2023-05-23T10:44:10.866Z,7.30
2023-05-23T10:47:02.316Z,6.88
2023-05-23T10:49:54.493Z,8.95
2023-05-23T10:52:43.362Z,8.43
2023-05-23T10:55:34.707Z,7.80
2023-05-23T10:58:23.406Z,9.73
2023-05-23T11:01:15.078Z,7.15
2023-05-23T11:04:07.327Z,8.10
2023-05-23T11:06:57.700Z,9.90
2023-05-23T11:10:06.509Z,8.25
2023-05-23T11:13:08.020Z,6.70
2023-05-23T11:15:55.857Z,8.23
2023-05-23T11:18:45.472Z,7.07
2023-05-23T11:21:33.700Z,7.13
2023-05-23T11:24:23.619Z,9.73
2023-05-23T11:27:13.385Z,8.48
2023-05-23T11:30:07.752Z,9.05
2023-05-23T11:32:56.132Z,7.57
2023-05-23T11:35:45.100Z,8.98
2023-05-23T11:38:33.849Z,6.45
2023-05-23T11:41:22.999Z,10.05
2023-05-23T11:44:14.244Z,10.15
2023-05-23T11:47:03.629Z,6.35
2023-05-23T11:49:51.367Z,9.00
2023-05-23T11:52:39.314Z,6.72
2023-05-23T11:55:27.058Z,12.13
2023-05-23T11:58:16.584Z,6.65
2023-05-23T12:01:06.472Z,6.38
2023-05-23T12:03:54.198Z,9.50
2023-05-23T12:06:42.776Z,6.45
2023-05-23T12:09:30.551Z,7.65
2023-05-23T12:12:18.303Z,8.20
2023-05-23T12:15:08.689Z,7.53
2023-05-23T12:17:57.236Z,7.45
2023-05-23T12:20:45.008Z,6.35
2023-05-23T12:23:34.892Z,18.15
2023-05-23T12:26:23.435Z,7.35
2023-05-23T12:29:11.121Z,6.95
2023-05-23T12:32:02.331Z,7.63
2023-05-23T12:34:51.015Z,7.07
2023-05-23T12:37:41.091Z,10.50
2023-05-23T12:40:29.881Z,7.97
2023-05-23T12:43:17.942Z,7.13
2023-05-23T12:46:06.411Z,9.00
2023-05-23T12:48:55.865Z,9.27
2023-05-23T12:51:43.676Z,10.27
2023-05-23T12:54:31.445Z,15.90
2023-05-23T12:57:19.274Z,5.90
2023-05-23T13:00:08.286Z,5.47
2023-05-23T13:02:56.672Z,7.78
2023-05-23T13:05:46.515Z,7.70
2023-05-23T13:08:34.202Z,5.90
2023-05-23T13:11:22.533Z,5.45
2023-05-23T13:14:10.974Z,4.82
2023-05-23T13:16:59.146Z,7.32
2023-05-23T13:19:47.195Z,4.68
2023-05-23T13:22:36.526Z,11.02
2023-05-23T13:25:24.259Z,5.20
2023-05-23T13:28:12.034Z,7.28
2023-05-23T13:31:00.236Z,5.40
2023-05-23T13:33:48.045Z,6.60
2023-05-23T13:36:36.067Z,7.80
2023-05-23T13:39:25.112Z,5.05
2023-05-23T13:42:12.920Z,5.38
2023-05-23T13:45:00.918Z,8.15
2023-05-23T13:47:48.635Z,8.07
2023-05-23T13:50:36.492Z,5.63
2023-05-23T13:53:24.198Z,7.03
2023-05-23T13:56:13.313Z,10.90
2023-05-23T13:59:01.139Z,6.43
2023-05-23T14:01:49.081Z,5.38
2023-05-23T14:04:36.837Z,6.45
2023-05-23T14:07:24.604Z,6.95
2023-05-23T14:10:12.710Z,7.38
2023-05-23T14:13:02.233Z,8.85
2023-05-23T14:15:50.136Z,8.32
2023-05-23T14:18:37.952Z,6.90
2023-05-23T14:21:25.609Z,6.68
2023-05-23T14:24:13.405Z,6.45
2023-05-23T14:27:02.560Z,8.10
2023-05-23T14:29:51.734Z,4.30
2023-05-23T14:32:39.782Z,5.72
2023-05-23T14:35:29.568Z,7.35
2023-05-23T14:38:17.461Z,7.07
2023-05-23T14:41:05.147Z,8.02
2023-05-23T14:43:53.088Z,6.78
2023-05-23T14:46:48.448Z,5.43
2023-05-23T14:49:36.888Z,8.75
2023-05-23T14:52:24.728Z,8.38
2023-05-23T14:55:12.680Z,7.80
2023-05-23T14:58:00.632Z,10.05
2023-05-23T15:00:48.480Z,10.27
2023-05-23T15:03:42.040Z,5.25
2023-05-23T15:06:29.802Z,5.72
2023-05-23T15:09:18.254Z,6.75
2023-05-23T15:12:09.785Z,5.68
2023-05-23T15:15:03.350Z,6.88
2023-05-23T15:17:52.156Z,9.48
2023-05-23T15:20:41.679Z,4.70
2023-05-23T15:23:29.571Z,8.73
2023-05-23T15:26:17.336Z,8.15
2023-05-23T15:29:05.072Z,6.95
2023-05-23T15:31:52.823Z,7.10
2023-05-23T15:34:40.517Z,10.43
2023-05-23T15:37:32.586Z,13.18
2023-05-23T15:40:21.685Z,6.30
2023-05-23T15:43:09.488Z,6.13
2023-05-23T15:45:57.265Z,6.72
2023-05-23T15:48:44.994Z,6.97
2023-05-23T15:51:36.564Z,5.63
2023-05-23T15:54:25.666Z,10.30
2023-05-23T15:57:15.392Z,8.43
2023-05-23T16:00:03.289Z,5.93
2023-05-23T16:02:51.125Z,9.90
2023-05-23T16:05:42.163Z,9.77
2023-05-23T16:08:30.204Z,6.88
2023-05-23T16:11:19.766Z,9.18
2023-05-23T16:14:07.521Z,12.27
2023-05-23T16:16:55.194Z,11.93
2023-05-23T16:19:43.334Z,12.38
2023-05-23T16:22:32.581Z,9.10
2023-05-23T16:25:20.353Z,8.63
2023-05-23T16:28:09.788Z,10.52
2023-05-23T16:30:57.553Z,6.38
2023-05-23T16:33:46.017Z,4.57
2023-05-23T16:36:33.811Z,9.20
2023-05-23T16:39:21.519Z,10.07
2023-05-23T16:42:09.516Z,9.88
2023-05-23T16:44:59.213Z,6.78
2023-05-23T16:47:47.007Z,9.20
2023-05-23T16:50:34.727Z,6.93
2023-05-23T16:53:22.815Z,9.40
2023-05-23T16:56:10.680Z,18.52
2023-05-23T16:58:58.641Z,11.50
2023-05-23T17:01:47.782Z,10.13
2023-05-23T17:04:35.792Z,10.50
2023-05-23T17:07:23.570Z,6.10
2023-05-23T17:10:12.586Z,21.33
2023-05-23T17:13:00.572Z,15.30
2023-05-23T17:15:50.301Z,17.10
2023-05-23T17:18:39.600Z,15.43
2023-05-23T17:21:27.633Z,25.42
2023-05-23T17:24:16.149Z,24.52
2023-05-23T17:27:05.350Z,33.75
2023-05-23T17:29:53.063Z,26.17
2023-05-23T17:32:42.154Z,18.15
2023-05-23T17:35:31.808Z,12.93
2023-05-23T17:38:20.167Z,13.63
2023-05-23T17:41:07.969Z,18.95
2023-05-23T17:43:55.776Z,15.35
2023-05-23T17:46:43.610Z,18.27
2023-05-23T17:49:31.470Z,14.43
2023-05-23T17:52:20.606Z,16.52
2023-05-23T17:55:08.962Z,14.50
2023-05-23T17:57:56.653Z,14.98
2023-05-23T18:00:44.881Z,14.85
2023-05-23T18:03:32.868Z,17.42
2023-05-23T18:06:20.666Z,20.48
2023-05-23T18:09:09.787Z,17.73
2023-05-23T18:11:57.496Z,19.67
2023-05-23T18:14:45.602Z,17.20
2023-05-23T18:17:33.415Z,16.33
2023-05-23T18:20:21.213Z,21.67
2023-05-23T18:23:09.251Z,15.85
2023-05-23T18:25:59.466Z,19.65
2023-05-23T18:28:47.209Z,22.05
2023-05-23T18:31:34.918Z,22.10
2023-05-23T18:34:23.130Z,29.45
2023-05-23T18:37:10.871Z,23.50
2023-05-23T18:40:00.304Z,21.75
2023-05-23T18:42:50.361Z,15.77
2023-05-23T18:45:38.099Z,16.25
2023-05-23T18:48:26.817Z,14.45
2023-05-23T18:51:14.721Z,14.15
2023-05-23T18:54:02.492Z,13.68
2023-05-23T18:56:50.422Z,10.80
2023-05-23T18:59:39.526Z,14.70
2023-05-23T19:02:27.550Z,16.50
2023-05-23T19:05:15.395Z,13.43
2023-05-23T19:08:03.454Z,11.25
2023-05-23T19:10:51.232Z,10.65
2023-05-23T19:13:39.032Z,10.25
2023-05-23T19:16:28.254Z,11.68
2023-05-23T19:19:16.791Z,11.90
2023-05-23T19:22:04.678Z,11.50
2023-05-23T19:24:52.344Z,13.13
2023-05-23T19:27:40.237Z,11.60
2023-05-23T19:30:28.391Z,14.52
2023-05-23T19:33:19.390Z,17.73
2023-05-23T19:36:07.422Z,13.88
2023-05-23T19:38:55.607Z,13.63
2023-05-23T19:41:43.346Z,9.90
2023-05-23T19:44:31.551Z,11.15
2023-05-23T19:47:19.370Z,13.10
2023-05-23T19:50:11.990Z,13.02
2023-05-23T19:53:00.668Z,14.07
2023-05-23T19:55:48.384Z,15.35
2023-05-23T19:58:36.338Z,12.57
2023-05-23T20:01:24.178Z,17.00
2023-05-23T20:04:12.983Z,13.27
2023-05-23T20:07:02.228Z,11.65
2023-05-23T20:09:50.022Z,12.05
2023-05-23T20:12:37.830Z,10.15
2023-05-23T20:15:38.650Z,12.75
2023-05-23T20:18:26.950Z,10.57
2023-05-23T20:21:14.718Z,17.15
2023-05-23T20:24:03.916Z,12.85
2023-05-23T20:26:51.652Z,10.25
2023-05-23T20:29:39.645Z,9.65
2023-05-23T20:32:27.542Z,11.43
2023-05-23T20:35:15.450Z,15.10
2023-05-23T20:38:03.407Z,10.55
2023-05-23T20:40:52.857Z,9.00
2023-05-23T20:43:40.860Z,10.40
2023-05-23T20:46:28.853Z,10.88
2023-05-23T20:49:16.924Z,12.05
2023-05-23T20:52:05.555Z,12.35
2023-05-23T20:54:54.459Z,13.65
2023-05-23T20:57:43.801Z,9.25
2023-05-23T21:00:31.866Z,10.52
2023-05-23T21:03:20.032Z,12.38
2023-05-23T21:06:08.435Z,14.18
2023-05-23T21:08:56.189Z,8.45
2023-05-23T21:11:44.054Z,9.90
2023-05-23T21:14:33.234Z,12.90
2023-05-23T21:17:21.125Z,13.18
2023-05-23T21:20:10.720Z,11.88
2023-05-23T21:22:58.597Z,12.43
2023-05-23T21:25:46.302Z,10.95
2023-05-23T21:28:34.044Z,10.07
2023-05-23T21:31:33.248Z,11.27
2023-05-23T21:34:25.252Z,11.35
2023-05-23T21:37:13.011Z,15.38
2023-05-23T21:40:00.758Z,12.18
2023-05-23T21:42:48.515Z,10.40
2023-05-23T21:45:36.248Z,10.27
2023-05-23T21:48:25.781Z,8.65
2023-05-23T21:51:13.537Z,17.15
2023-05-23T21:54:01.395Z,9.00
2023-05-23T21:56:49.190Z,12.95
2023-05-23T21:59:36.923Z,8.20
2023-05-23T22:02:24.700Z,10.02
2023-05-23T22:05:14.265Z,12.00
2023-05-23T22:08:01.961Z,10.63
2023-05-23T22:10:49.720Z,15.48
2023-05-23T22:13:37.506Z,13.02
2023-05-23T22:16:26.087Z,14.05
2023-05-23T22:19:18.040Z,10.10
2023-05-23T22:22:07.979Z,10.27
2023-05-23T22:24:55.715Z,12.18
2023-05-23T22:27:43.557Z,10.43
2023-05-23T22:30:31.393Z,9.93
2023-05-23T22:33:19.066Z,10.73
2023-05-23T22:36:07.974Z,11.65
2023-05-23T22:38:57.346Z,8.00
2023-05-23T22:41:45.392Z,11.20
2023-05-23T22:44:33.091Z,14.27
2023-05-23T22:47:20.939Z,8.68
2023-05-23T22:50:09.633Z,8.35
2023-05-23T22:52:58.453Z,11.93
2023-05-23T22:55:47.485Z,8.73
2023-05-23T22:58:35.615Z,8.80
2023-05-23T23:01:23.492Z,11.40
2023-05-23T23:04:12.173Z,17.08
2023-05-23T23:07:01.372Z,12.82
2023-05-23T23:09:49.156Z,11.77
2023-05-23T23:12:38.315Z,12.00
2023-05-23T23:15:26.243Z,7.75
2023-05-23T23:18:14.817Z,8.13
2023-05-23T23:21:02.590Z,9.18
2023-05-23T23:23:50.281Z,10.45
2023-05-23T23:26:38.175Z,13.93
2023-05-23T23:29:27.235Z,13.68
2023-05-23T23:32:14.876Z,10.02
2023-05-23T23:35:02.934Z,8.70
2023-05-23T23:37:50.672Z,8.57
2023-05-23T23:40:38.447Z,14.02
2023-05-23T23:43:26.165Z,8.63
2023-05-23T23:46:15.279Z,11.57
2023-05-23T23:49:02.988Z,8.85
2023-05-23T23:51:50.993Z,8.43
2023-05-23T23:54:38.747Z,10.55
2023-05-23T23:57:26.546Z,7.50
